Time;durP1;ratioP1;P1;durP2;ratioP2;P2;SDS_P1;SDS_P2;PMS_P1;PMS_P2;Temp;Humidity;BMP_temperature;BMP_pressure;BME280_temperature;BME280_humidity;BME280_pressure;Samples;Min_cycle;Max_cycle;Signal;HPM_P1;HPM_P2
2023/12/03 00:00:41;;;;;;;20.23;12.40;;;-1.30;99.90;;;;;;5053235;28;20024;-51
2023/12/03 00:03:12;;;;;;;23.27;12.52;;;-1.30;99.90;;;;;;5053814;28;20056;-52
2023/12/03 00:05:38;;;;;;;21.02;12.70;;;-1.30;99.90;;;;;;5053451;28;20377;-51
2023/12/03 00:08:04;;;;;;;19.30;12.15;;;-1.30;99.90;;;;;;5053479;28;20488;-48
2023/12/03 00:10:30;;;;;;;19.25;12.20;;;-1.40;99.90;;;;;;5035124;28;20537;-53
2023/12/03 00:12:56;;;;;;;17.73;11.88;;;-1.40;99.90;;;;;;5035023;28;20403;-52
2023/12/03 00:15:22;;;;;;;21.60;11.80;;;-1.50;99.90;;;;;;5052842;28;20025;-53
2023/12/03 00:17:48;;;;;;;19.42;12.55;;;-1.50;99.90;;;;;;5014355;22;20383;-46
2023/12/03 00:20:13;;;;;;;17.25;12.10;;;-1.50;99.90;;;;;;4971324;28;20473;-51
2023/12/03 00:22:39;;;;;;;19.85;12.45;;;-1.40;99.90;;;;;;4970503;28;20043;-51
2023/12/03 00:25:06;;;;;;;21.85;11.77;;;-1.40;99.90;;;;;;4971333;28;20494;-52
2023/12/03 00:27:32;;;;;;;20.55;12.27;;;-1.40;99.90;;;;;;4971162;28;20073;-50
2023/12/03 00:29:57;;;;;;;18.73;12.52;;;-1.40;99.90;;;;;;4971262;28;20478;-52
2023/12/03 00:32:23;;;;;;;24.80;15.60;;;-1.40;99.90;;;;;;4953878;28;20160;-52
2023/12/03 00:34:48;;;;;;;52.50;24.80;;;-1.40;99.90;;;;;;4953939;28;20449;-51
2023/12/03 00:37:14;;;;;;;25.77;14.32;;;-1.50;99.90;;;;;;4971049;28;20488;-51
2023/12/03 00:39:39;;;;;;;18.27;13.00;;;-1.60;99.90;;;;;;4953689;28;20031;-50
2023/12/03 00:42:05;;;;;;;22.40;12.88;;;-1.60;99.90;;;;;;4970742;28;20383;-52
2023/12/03 00:44:30;;;;;;;20.52;12.70;;;-1.60;99.90;;;;;;4954036;28;20026;-52
2023/12/03 00:46:56;;;;;;;21.75;12.75;;;-1.60;99.90;;;;;;4971107;28;20034;-53
2023/12/03 00:49:21;;;;;;;21.30;13.65;;;-1.60;99.90;;;;;;4971083;28;20168;-49
2023/12/03 00:51:47;;;;;;;19.00;12.80;;;-1.70;99.90;;;;;;4970670;28;20438;-51
2023/12/03 00:54:12;;;;;;;20.30;12.50;;;-1.70;99.90;;;;;;4953614;28;20049;-50
2023/12/03 00:56:38;;;;;;;23.58;14.25;;;-1.70;99.90;;;;;;4953489;28;20035;-53
2023/12/03 00:59:03;;;;;;;25.55;14.55;;;-1.70;99.90;;;;;;4970961;28;20098;-49
2023/12/03 01:01:29;;;;;;;23.25;13.85;;;-1.70;99.90;;;;;;4953445;28;20026;-51
2023/12/03 01:03:54;;;;;;;20.77;12.18;;;-1.70;99.90;;;;;;4970891;28;20022;-55
2023/12/03 01:06:20;;;;;;;25.50;14.20;;;-1.70;99.90;;;;;;4970566;28;20036;-54
2023/12/03 01:08:45;;;;;;;22.77;13.25;;;-1.70;99.90;;;;;;4970931;28;20041;-48
2023/12/03 01:11:11;;;;;;;23.70;14.27;;;-1.70;99.90;;;;;;4970646;28;20424;-52
2023/12/03 01:13:36;;;;;;;22.58;13.73;;;-1.70;99.90;;;;;;4970971;28;20030;-54
2023/12/03 01:16:03;;;;;;;26.10;14.43;;;-1.80;99.90;;;;;;4970300;28;20121;-55
2023/12/03 01:18:29;;;;;;;23.15;14.60;;;-1.70;99.90;;;;;;4970791;28;20278;-48
2023/12/03 01:20:54;;;;;;;23.45;15.30;;;-1.70;99.90;;;;;;4970416;28;20026;-49
2023/12/03 01:23:20;;;;;;;28.45;14.95;;;-1.80;99.90;;;;;;4953383;28;20027;-49
2023/12/03 01:25:45;;;;;;;21.88;13.45;;;-1.80;99.90;;;;;;4970145;28;20042;-51
2023/12/03 01:28:11;;;;;;;18.58;12.25;;;-1.80;99.90;;;;;;4970272;28;20042;-49
2023/12/03 01:30:36;;;;;;;27.17;15.05;;;-1.80;99.90;;;;;;4970205;28;20464;-49
2023/12/03 01:33:02;;;;;;;22.13;14.50;;;-1.80;99.90;;;;;;4970614;28;20030;-48
2023/12/03 01:35:27;;;;;;;25.10;15.40;;;-1.70;99.90;;;;;;4970326;28;20027;-49
2023/12/03 01:37:53;;;;;;;29.95;16.10;;;-1.80;99.90;;;;;;4970227;28;20517;-48
2023/12/03 01:40:18;;;;;;;22.80;14.05;;;-1.70;99.90;;;;;;4952773;28;20048;-50
2023/12/03 01:42:44;;;;;;;22.42;14.13;;;-1.70;99.90;;;;;;4970143;28;20054;-48
2023/12/03 01:45:10;;;;;;;24.50;13.77;;;-1.70;99.90;;;;;;4970312;28;20031;-52
2023/12/03 01:47:35;;;;;;;21.75;14.07;;;-1.60;99.90;;;;;;4970117;28;20101;-48
2023/12/03 01:50:06;;;;;;;23.08;14.38;;;-1.60;99.90;;;;;;4970449;28;20454;-54
2023/12/03 01:52:33;;;;;;;24.77;14.68;;;-1.70;99.90;;;;;;4969971;28;20046;-53
2023/12/03 01:55:00;;;;;;;24.25;15.25;;;-1.60;99.90;;;;;;4970492;28;20042;-52
2023/12/03 01:57:26;;;;;;;30.13;15.60;;;-1.60;99.90;;;;;;4952565;28;20038;-53
2023/12/03 01:59:52;;;;;;;27.15;14.90;;;-1.60;99.90;;;;;;4970009;28;20053;-52
2023/12/03 02:02:17;;;;;;;25.77;14.70;;;-1.60;99.90;;;;;;4969886;28;20019;-50
2023/12/03 02:04:43;;;;;;;27.38;15.68;;;-1.60;99.90;;;;;;4970185;28;20440;-50
2023/12/03 02:07:08;;;;;;;30.65;15.43;;;-1.60;99.90;;;;;;4969973;28;20102;-49
2023/12/03 02:09:34;;;;;;;26.35;15.05;;;-1.50;99.90;;;;;;4952813;28;20068;-49
2023/12/03 02:12:00;;;;;;;25.83;16.08;;;-1.60;99.90;;;;;;4969570;28;20035;-50
2023/12/03 02:14:25;;;;;;;25.85;14.65;;;-1.70;99.90;;;;;;4952583;28;20489;-48
2023/12/03 02:16:51;;;;;;;31.52;16.05;;;-1.60;99.90;;;;;;4969445;28;20066;-50
2023/12/03 02:19:17;;;;;;;25.58;15.65;;;-1.60;99.90;;;;;;4970443;28;20070;-45
2023/12/03 02:21:42;;;;;;;26.85;14.52;;;-1.50;99.90;;;;;;4969963;28;20023;-48
2023/12/03 02:24:08;;;;;;;26.25;15.60;;;-1.50;99.90;;;;;;4952563;28;20375;-48
2023/12/03 02:26:34;;;;;;;25.33;16.60;;;-1.50;99.90;;;;;;4969904;28;20427;-48
2023/12/03 02:28:59;;;;;;;28.67;16.15;;;-1.50;99.90;;;;;;4969788;28;20538;-51
2023/12/03 02:31:27;;;;;;;25.48;16.70;;;-1.50;99.90;;;;;;4969504;28;20042;-48
2023/12/03 02:34:02;;;;;;;29.92;16.63;;;-1.50;99.90;;;;;;4952472;28;20121;-48
2023/12/03 02:36:28;;;;;;;30.92;16.98;;;-1.40;99.90;;;;;;4952830;28;20030;-48
2023/12/03 02:38:54;;;;;;;33.75;17.73;;;-1.40;99.90;;;;;;4972988;28;20052;-45
2023/12/03 02:41:20;;;;;;;29.23;17.33;;;-1.30;99.90;;;;;;4972925;28;20643;-51
2023/12/03 02:43:45;;;;;;;30.70;17.67;;;-1.30;99.90;;;;;;4973049;28;20031;-49
2023/12/03 02:46:11;;;;;;;26.52;16.10;;;-1.30;99.90;;;;;;4955540;28;20031;-48
2023/12/03 02:48:36;;;;;;;29.00;16.95;;;-1.30;99.90;;;;;;4972991;28;20085;-53
2023/12/03 02:51:02;;;;;;;29.75;17.73;;;-1.20;99.90;;;;;;4972429;28;20464;-52
2023/12/03 02:53:27;;;;;;;33.63;18.52;;;-1.20;99.90;;;;;;4955414;28;20023;-49
2023/12/03 02:55:53;;;;;;;29.23;18.42;;;-1.30;99.90;;;;;;4972662;28;20440;-50
2023/12/03 02:58:18;;;;;;;30.77;18.67;;;-1.30;99.90;;;;;;4955398;28;20038;-53
2023/12/03 03:00:44;;;;;;;30.48;17.42;;;-1.40;99.90;;;;;;4972585;28;20027;-51
2023/12/03 03:03:09;;;;;;;37.22;21.30;;;-1.60;99.90;;;;;;4972687;28;20027;-53
2023/12/03 03:05:35;;;;;;;37.90;19.83;;;-1.60;99.90;;;;;;4972464;28;20031;-53
2023/12/03 03:08:00;;;;;;;34.85;19.13;;;-1.60;99.90;;;;;;4955162;28;20030;-51
2023/12/03 03:10:26;;;;;;;32.72;17.80;;;-1.60;99.90;;;;;;4972337;28;20494;-50
2023/12/03 03:12:51;;;;;;;32.88;19.20;;;-1.60;99.90;;;;;;4972455;28;20044;-52
2023/12/03 03:15:17;;;;;;;31.80;18.17;;;-1.50;99.90;;;;;;4955083;28;20473;-52
2023/12/03 03:17:42;;;;;;;33.17;18.60;;;-1.60;99.90;;;;;;4972194;28;20046;-49
2023/12/03 03:20:08;;;;;;;34.30;19.42;;;-1.50;99.90;;;;;;4972250;28;20366;-54
2023/12/03 03:22:34;;;;;;;38.88;22.10;;;-1.50;99.90;;;;;;4954629;28;20023;-52
2023/12/03 03:24:59;;;;;;;36.05;20.40;;;-1.60;99.90;;;;;;4955248;28;20474;-48
2023/12/03 03:27:25;;;;;;;36.45;20.02;;;-1.60;99.90;;;;;;4972172;28;20115;-48
2023/12/03 03:29:50;;;;;;;38.17;18.95;;;-1.60;99.90;;;;;;4972357;28;20042;-48
2023/12/03 03:32:16;;;;;;;39.58;21.33;;;-1.70;99.90;;;;;;4972073;28;20102;-48
2023/12/03 03:34:41;;;;;;;40.08;20.73;;;-1.70;99.90;;;;;;4972243;28;20481;-48
2023/12/03 03:37:07;;;;;;;35.15;19.83;;;-1.70;99.90;;;;;;4954788;28;20027;-50
2023/12/03 03:39:32;;;;;;;38.28;20.20;;;-1.70;99.90;;;;;;4972210;28;20027;-50
2023/12/03 03:41:58;;;;;;;31.98;19.58;;;-1.80;99.90;;;;;;4954890;28;20041;-51
2023/12/03 03:44:23;;;;;;;33.67;19.77;;;-1.80;99.90;;;;;;4954612;28;20076;-55
2023/12/03 03:46:49;;;;;;;36.78;20.80;;;-1.80;99.90;;;;;;4954627;28;20037;-51
2023/12/03 03:49:14;;;;;;;41.35;21.05;;;-1.70;99.90;;;;;;4972153;28;20034;-51
2023/12/03 03:51:40;;;;;;;38.15;20.20;;;-1.60;99.90;;;;;;4971543;28;20461;-49
2023/12/03 03:54:06;;;;;;;38.10;18.67;;;-1.70;99.90;;;;;;4954487;28;20030;-51
2023/12/03 03:56:32;;;;;;;38.60;19.33;;;-1.70;99.90;;;;;;4972063;28;20118;-54
2023/12/03 03:58:57;;;;;;;40.90;20.83;;;-1.70;99.90;;;;;;4972288;28;20540;-53
2023/12/03 04:01:23;;;;;;;40.35;22.33;;;-1.70;99.90;;;;;;4971672;28;20033;-54
2023/12/03 04:03:48;;;;;;;35.38;20.85;;;-1.70;99.90;;;;;;4954798;28;20023;-54
2023/12/03 04:06:14;;;;;;;35.60;19.75;;;-1.80;99.90;;;;;;4954639;28;20433;-52
2023/12/03 04:08:39;;;;;;;38.38;20.45;;;-1.80;99.90;;;;;;4954740;28;20042;-53
2023/12/03 04:11:05;;;;;;;39.72;22.15;;;-1.80;99.90;;;;;;4971852;28;20505;-51
2023/12/03 04:13:31;;;;;;;38.45;20.90;;;-1.80;99.90;;;;;;4972017;28;20031;-52
2023/12/03 04:15:57;;;;;;;39.45;20.65;;;-1.80;99.90;;;;;;4971682;28;20089;-49
2023/12/03 04:18:23;;;;;;;38.90;21.15;;;-1.80;99.90;;;;;;4954434;28;20031;-48
2023/12/03 04:20:49;;;;;;;37.78;22.25;;;-1.70;99.90;;;;;;4971522;28;20026;-53
2023/12/03 04:23:15;;;;;;;38.50;21.67;;;-1.70;99.90;;;;;;4971688;28;20077;-53
2023/12/03 04:25:41;;;;;;;43.50;21.05;;;-1.70;99.90;;;;;;4971732;28;20034;-53
2023/12/03 04:28:06;;;;;;;35.90;20.83;;;-1.70;99.90;;;;;;4971364;28;20501;-50
2023/12/03 04:30:32;;;;;;;38.20;20.40;;;-1.80;99.90;;;;;;4971397;28;20102;-51
2023/12/03 04:32:57;;;;;;;42.67;22.73;;;-1.90;99.90;;;;;;4954203;28;20031;-53
2023/12/03 04:35:23;;;;;;;37.60;21.50;;;-1.90;99.90;;;;;;4971485;28;20517;-52
2023/12/03 04:37:48;;;;;;;38.70;20.70;;;-1.90;99.90;;;;;;4954084;28;20069;-56
2023/12/03 04:40:15;;;;;;;38.30;20.50;;;-1.90;99.90;;;;;;4971345;28;20105;-51
2023/12/03 04:42:40;;;;;;;42.17;22.38;;;-1.90;99.90;;;;;;4953743;28;20379;-52
2023/12/03 04:45:07;;;;;;;42.05;22.25;;;-2.00;99.90;;;;;;4971447;28;20026;-50
2023/12/03 04:47:32;;;;;;;40.25;22.77;;;-2.00;99.90;;;;;;4971257;28;20084;-53
2023/12/03 04:49:58;;;;;;;42.22;22.02;;;-2.00;99.90;;;;;;4971103;28;20702;-54
2023/12/03 04:52:23;;;;;;;40.10;21.20;;;-2.00;99.90;;;;;;4971032;28;20102;-50
2023/12/03 04:54:49;;;;;;;45.35;22.73;;;-2.10;99.90;;;;;;4971135;28;20027;-53
2023/12/03 04:57:14;;;;;;;42.65;22.55;;;-2.00;99.90;;;;;;4971047;28;20076;-53
2023/12/03 04:59:40;;;;;;;43.17;22.85;;;-2.10;99.90;;;;;;4970488;28;20514;-50
2023/12/03 05:02:05;;;;;;;44.53;22.10;;;-2.10;99.90;;;;;;4953839;28;20027;-50
2023/12/03 05:04:31;;;;;;;39.83;21.00;;;-2.10;99.90;;;;;;4970990;28;20114;-50
2023/12/03 05:06:56;;;;;;;41.88;21.17;;;-2.10;99.90;;;;;;4971010;28;20035;-54
2023/12/03 05:09:22;;;;;;;46.45;23.38;;;-2.10;99.90;;;;;;4970991;28;20035;-49
2023/12/03 05:11:48;;;;;;;47.40;25.13;;;-2.20;99.90;;;;;;4970652;28;20040;-54
2023/12/03 05:14:14;;;;;;;45.75;23.30;;;-2.20;99.90;;;;;;4970873;28;20027;-51
2023/12/03 05:16:39;;;;;;;44.65;22.73;;;-2.20;99.90;;;;;;4952993;28;20034;-51
2023/12/03 05:19:05;;;;;;;46.60;24.55;;;-2.30;99.90;;;;;;4971133;28;20081;-52
2023/12/03 05:21:31;;;;;;;52.20;24.27;;;-2.30;99.90;;;;;;4953258;28;20409;-53
2023/12/03 05:23:56;;;;;;;46.35;23.92;;;-2.30;99.90;;;;;;4970801;28;20054;-49
2023/12/03 05:26:22;;;;;;;45.75;22.83;;;-2.20;99.90;;;;;;4953443;28;20022;-52
2023/12/03 05:28:47;;;;;;;50.65;22.67;;;-2.20;99.90;;;;;;4953558;28;20026;-47
2023/12/03 05:31:13;;;;;;;49.60;24.90;;;-2.20;99.90;;;;;;4970427;28;20067;-53
2023/12/03 05:33:41;;;;;;;45.70;22.10;;;-2.10;99.90;;;;;;4970472;28;20490;-51
2023/12/03 05:36:07;;;;;;;50.75;23.23;;;-2.00;99.90;;;;;;4970520;28;20486;-50
2023/12/03 05:38:33;;;;;;;52.25;24.15;;;-2.00;99.90;;;;;;4970575;28;20110;-51
2023/12/03 05:40:58;;;;;;;49.45;25.08;;;-2.00;99.90;;;;;;4970288;28;20582;-54
2023/12/03 05:43:24;;;;;;;47.10;22.92;;;-1.90;99.90;;;;;;4970422;28;20029;-54
2023/12/03 05:45:49;;;;;;;51.53;23.77;;;-1.90;99.90;;;;;;4970352;28;20027;-52
2023/12/03 05:48:15;;;;;;;43.97;21.88;;;-1.80;99.90;;;;;;4970382;28;20088;-51
2023/12/03 05:50:41;;;;;;;52.85;22.83;;;-1.80;99.90;;;;;;4970046;28;20030;-54
2023/12/03 05:53:07;;;;;;;50.40;24.92;;;-1.90;99.90;;;;;;4953076;28;20023;-53
2023/12/03 05:55:32;;;;;;;48.80;22.58;;;-1.90;99.90;;;;;;4970458;28;20030;-53
2023/12/03 05:57:58;;;;;;;44.13;23.45;;;-1.90;99.90;;;;;;4970416;28;20034;-52
2023/12/03 06:00:23;;;;;;;51.03;24.05;;;-2.00;99.90;;;;;;4952662;28;20033;-51
2023/12/03 06:02:49;;;;;;;43.03;22.17;;;-2.00;99.90;;;;;;4952910;28;20027;-54
2023/12/03 06:05:14;;;;;;;47.67;23.00;;;-2.00;99.90;;;;;;4953186;28;20034;-47
2023/12/03 06:07:40;;;;;;;43.95;22.15;;;-2.10;99.90;;;;;;4970105;28;20031;-48
2023/12/03 06:10:06;;;;;;;46.47;24.77;;;-2.10;99.90;;;;;;4970156;28;20077;-47
2023/12/03 06:12:32;;;;;;;44.28;23.15;;;-2.00;99.90;;;;;;4968863;28;20038;-49
2023/12/03 06:14:57;;;;;;;46.55;23.92;;;-2.10;99.90;;;;;;4970027;28;20035;-52
2023/12/03 06:17:23;;;;;;;45.05;22.88;;;-2.20;99.90;;;;;;4990567;22;20050;-48
2023/12/03 06:19:49;;;;;;;48.58;23.85;;;-2.20;99.90;;;;;;4952737;28;20382;-45
2023/12/03 06:22:14;;;;;;;47.13;24.73;;;-2.30;99.90;;;;;;4969438;28;20168;-48
2023/12/03 06:24:40;;;;;;;46.47;24.08;;;-2.30;99.90;;;;;;4969881;28;20101;-52
2023/12/03 06:27:06;;;;;;;46.33;24.30;;;-2.30;99.90;;;;;;4969981;28;20054;-50
2023/12/03 06:29:31;;;;;;;44.40;23.63;;;-2.30;99.90;;;;;;4952604;28;20034;-49
2023/12/03 06:31:56;;;;;;;49.30;23.42;;;-2.30;99.90;;;;;;4969822;28;20069;-47
2023/12/03 06:34:22;;;;;;;53.90;25.83;;;-2.40;99.90;;;;;;4970670;28;20031;-48
2023/12/03 06:36:47;;;;;;;41.95;21.95;;;-2.30;99.90;;;;;;4953533;28;20301;-48
2023/12/03 06:39:13;;;;;;;41.85;22.45;;;-2.30;99.90;;;;;;4970428;28;20023;-50
2023/12/03 06:41:39;;;;;;;43.30;23.13;;;-2.30;99.90;;;;;;4952585;28;20030;-51
2023/12/03 06:44:04;;;;;;;44.55;23.73;;;-2.30;99.90;;;;;;4970212;28;20025;-52
2023/12/03 06:46:30;;;;;;;45.30;22.52;;;-2.30;99.90;;;;;;4952496;28;20106;-47
2023/12/03 06:48:55;;;;;;;49.05;23.58;;;-2.30;99.90;;;;;;4970014;28;20436;-48
2023/12/03 06:51:21;;;;;;;47.70;23.35;;;-2.40;99.90;;;;;;4952525;28;20015;-51
2023/12/03 06:53:46;;;;;;;39.70;22.90;;;-2.40;99.90;;;;;;4969831;28;20042;-49
2023/12/03 06:56:12;;;;;;;37.40;20.58;;;-2.60;99.90;;;;;;4952328;28;20497;-48
2023/12/03 06:58:37;;;;;;;38.58;21.73;;;-2.50;99.90;;;;;;4969473;28;20038;-50
2023/12/03 07:01:04;;;;;;;49.83;22.65;;;-2.50;99.90;;;;;;4969398;28;20023;-52
2023/12/03 07:03:29;;;;;;;37.28;19.45;;;-2.50;99.90;;;;;;4969636;28;20090;-54
2023/12/03 07:05:55;;;;;;;41.42;21.88;;;-2.60;99.90;;;;;;4952333;28;20493;-50
2023/12/03 07:08:21;;;;;;;44.63;20.70;;;-2.60;99.90;;;;;;4969622;28;20035;-50
2023/12/03 07:10:46;;;;;;;46.90;23.38;;;-2.60;99.90;;;;;;4969640;28;20030;-49
2023/12/03 07:13:12;;;;;;;40.83;21.73;;;-2.60;99.90;;;;;;4952320;28;20081;-49
2023/12/03 07:15:37;;;;;;;42.90;22.38;;;-2.50;99.90;;;;;;4952263;28;20031;-48
2023/12/03 07:18:03;;;;;;;43.67;22.65;;;-2.50;99.90;;;;;;4952428;28;20034;-48
2023/12/03 07:20:29;;;;;;;38.50;21.45;;;-2.50;99.90;;;;;;4952249;28;20019;-48
2023/12/03 07:22:55;;;;;;;40.88;20.55;;;-2.50;99.90;;;;;;4953559;28;20051;-51
2023/12/03 07:25:21;;;;;;;39.55;19.67;;;-2.50;99.90;;;;;;4973240;28;20027;-48
2023/12/03 07:27:47;;;;;;;39.03;22.17;;;-2.50;99.90;;;;;;4972912;28;20038;-49
2023/12/03 07:30:13;;;;;;;40.20;22.42;;;-2.50;99.90;;;;;;4973091;28;20034;-48
2023/12/03 07:32:38;;;;;;;42.60;21.65;;;-2.60;99.90;;;;;;4972244;28;20034;-51
2023/12/03 07:35:04;;;;;;;38.10;20.55;;;-2.50;99.90;;;;;;4955394;28;20458;-47
2023/12/03 07:37:30;;;;;;;42.63;21.98;;;-2.50;99.90;;;;;;4972915;28;20023;-48
2023/12/03 07:39:56;;;;;;;39.97;21.17;;;-2.50;99.90;;;;;;4955436;28;20023;-52
2023/12/03 07:42:21;;;;;;;39.13;21.13;;;-2.40;99.90;;;;;;4972351;28;20465;-51
2023/12/03 07:44:47;;;;;;;37.30;18.55;;;-2.40;99.90;;;;;;4972314;28;20023;-52
2023/12/03 07:47:13;;;;;;;46.08;22.23;;;-2.40;99.90;;;;;;4972275;28;20388;-47
2023/12/03 07:49:39;;;;;;;45.78;22.08;;;-2.40;99.90;;;;;;4954955;28;20107;-49
2023/12/03 07:52:05;;;;;;;37.03;19.70;;;-2.40;99.90;;;;;;4972081;28;20556;-49
2023/12/03 07:54:30;;;;;;;41.42;22.02;;;-2.40;99.90;;;;;;4972655;28;20027;-48
2023/12/03 07:56:56;;;;;;;34.22;18.45;;;-2.30;99.90;;;;;;4972825;28;20062;-48
2023/12/03 07:59:22;;;;;;;40.85;20.60;;;-2.30;99.90;;;;;;4972393;28;20027;-53
2023/12/03 08:01:48;;;;;;;42.17;22.02;;;-2.30;99.90;;;;;;4954645;28;20030;-51
2023/12/03 08:04:13;;;;;;;34.33;20.23;;;-2.30;99.90;;;;;;4972175;28;20470;-49
2023/12/03 08:06:39;;;;;;;42.88;23.02;;;-2.30;99.90;;;;;;4954809;28;20126;-50
2023/12/03 08:09:05;;;;;;;43.80;20.85;;;-2.20;99.90;;;;;;4972049;28;20031;-48
2023/12/03 08:11:30;;;;;;;38.47;21.08;;;-2.20;99.90;;;;;;4971628;28;20023;-52
2023/12/03 08:13:56;;;;;;;38.03;21.58;;;-2.10;99.90;;;;;;4971714;28;20394;-52
2023/12/03 08:16:22;;;;;;;38.72;21.23;;;-2.10;99.90;;;;;;4971751;28;20085;-56
2023/12/03 08:18:48;;;;;;;41.88;21.92;;;-1.90;99.90;;;;;;4955058;28;20035;-53
2023/12/03 08:21:14;;;;;;;40.10;21.17;;;-1.80;99.90;;;;;;4954991;28;20061;-51
2023/12/03 08:23:40;;;;;;;40.90;20.40;;;-1.70;99.90;;;;;;4955379;28;20038;-50
2023/12/03 08:26:06;;;;;;;43.75;21.70;;;-1.70;99.90;;;;;;4972436;28;20034;-50
2023/12/03 08:28:32;;;;;;;41.78;21.35;;;-1.70;99.90;;;;;;4971853;28;20085;-49
2023/12/03 08:30:58;;;;;;;37.03;21.33;;;-1.70;99.90;;;;;;4971504;28;20058;-50
2023/12/03 08:33:23;;;;;;;39.40;21.85;;;-1.60;99.90;;;;;;4971591;28;20043;-51
2023/12/03 08:35:49;;;;;;;37.88;20.63;;;-1.50;99.90;;;;;;4970606;28;20109;-51
2023/12/03 08:38:14;;;;;;;39.30;19.67;;;-1.50;99.90;;;;;;4971540;28;20034;-51
2023/12/03 08:40:40;;;;;;;34.63;19.85;;;-1.50;99.90;;;;;;4953921;28;20015;-50
2023/12/03 08:43:06;;;;;;;39.78;22.10;;;-1.40;99.90;;;;;;4971482;28;20031;-50
2023/12/03 08:45:34;;;;;;;38.83;20.83;;;-1.20;99.90;;;;;;4954176;28;20023;-55
2023/12/03 08:48:00;;;;;;;33.17;19.35;;;-0.50;99.90;;;;;;4938174;28;20030;-53
2023/12/03 08:50:28;;;;;;;31.92;18.45;;;0.20;99.90;;;;;;4971169;28;20405;-48
2023/12/03 08:52:54;;;;;;;31.90;18.92;;;1.10;99.90;;;;;;4971233;28;20058;-49
2023/12/03 08:55:20;;;;;;;29.70;18.30;;;1.90;99.90;;;;;;4971075;28;20049;-49
2023/12/03 08:57:46;;;;;;;28.92;18.08;;;2.60;99.90;;;;;;4953615;28;20073;-50
2023/12/03 09:00:13;;;;;;;30.27;18.00;;;3.10;99.90;;;;;;4971025;28;20026;-50
2023/12/03 09:02:39;;;;;;;29.20;17.23;;;3.70;99.90;;;;;;4971033;28;20072;-50
2023/12/03 09:05:05;;;;;;;28.25;17.70;;;4.30;99.90;;;;;;4971138;28;20448;-50
2023/12/03 09:07:31;;;;;;;27.48;17.23;;;4.70;99.90;;;;;;4953695;28;20026;-52
2023/12/03 09:09:57;;;;;;;27.85;19.38;;;5.00;99.90;;;;;;4970909;28;20042;-49
2023/12/03 09:12:23;;;;;;;29.95;18.17;;;5.60;99.90;;;;;;4971167;28;20031;-48
2023/12/03 09:14:48;;;;;;;29.02;18.63;;;5.40;99.90;;;;;;4971692;28;20556;-52
2023/12/03 09:17:14;;;;;;;25.13;17.10;;;5.20;99.90;;;;;;4971736;28;20050;-51
2023/12/03 09:19:40;;;;;;;28.40;17.80;;;5.00;99.90;;;;;;4968326;28;20459;-51
2023/12/03 09:22:05;;;;;;;31.90;17.65;;;4.90;99.90;;;;;;4961041;28;20393;-52
2023/12/03 09:24:31;;;;;;;30.92;18.15;;;5.00;99.90;;;;;;4971793;28;20037;-51
2023/12/03 09:26:56;;;;;;;28.75;17.65;;;4.90;99.90;;;;;;4937887;28;20031;-53
2023/12/03 09:29:22;;;;;;;28.38;17.73;;;5.00;99.90;;;;;;4963824;28;20046;-48
2023/12/03 09:31:47;;;;;;;27.60;17.38;;;5.30;99.90;;;;;;4965664;28;20130;-48
2023/12/03 09:34:13;;;;;;;25.35;16.38;;;5.50;99.90;;;;;;4951176;28;20019;-50
2023/12/03 09:36:38;;;;;;;27.77;17.65;;;5.80;99.90;;;;;;4951204;29;20498;-47
2023/12/03 09:39:07;;;;;;;27.80;17.95;;;6.00;99.90;;;;;;4968451;28;20057;-53
2023/12/03 09:41:36;;;;;;;29.63;17.73;;;6.30;99.90;;;;;;4970230;28;20260;-51
2023/12/03 09:44:14;;;;;;;26.52;17.30;;;6.40;99.90;;;;;;4970363;28;20026;-51
2023/12/03 09:46:42;;;;;;;27.23;17.42;;;6.30;99.90;;;;;;4965968;28;20485;-50
2023/12/03 09:49:12;;;;;;;27.33;18.08;;;6.30;99.90;;;;;;4957941;28;20031;-49
2023/12/03 09:51:40;;;;;;;27.65;16.80;;;6.00;99.90;;;;;;4964696;28;20034;-48
2023/12/03 09:54:08;;;;;;;25.30;18.13;;;6.30;99.90;;;;;;4961763;28;20034;-52
2023/12/03 09:56:35;;;;;;;27.73;18.63;;;6.50;99.90;;;;;;4960616;28;20370;-49
2023/12/03 09:59:01;;;;;;;26.67;17.88;;;6.70;99.40;;;;;;4962505;28;20058;-51
2023/12/03 10:01:28;;;;;;;27.67;17.95;;;6.80;99.90;;;;;;4968647;28;20046;-48
2023/12/03 10:03:54;;;;;;;30.38;18.55;;;7.00;99.50;;;;;;4936521;28;20114;-51
2023/12/03 10:06:22;;;;;;;27.08;18.75;;;6.80;98.90;;;;;;4941921;28;20565;-48
2023/12/03 10:08:49;;;;;;;27.27;18.45;;;6.50;99.00;;;;;;4948753;28;20121;-48
2023/12/03 10:11:21;;;;;;;29.17;17.80;;;6.10;99.20;;;;;;4950756;29;20028;-49
2023/12/03 10:13:50;;;;;;;28.45;18.15;;;5.70;99.90;;;;;;4935536;28;20073;-52
2023/12/03 10:16:15;;;;;;;29.05;17.63;;;5.40;99.90;;;;;;4958265;28;20023;-48
2023/12/03 10:18:41;;;;;;;29.10;17.88;;;5.00;99.90;;;;;;4933262;29;20081;-49
2023/12/03 10:21:08;;;;;;;26.73;17.15;;;5.00;99.90;;;;;;4950707;28;20020;-52
2023/12/03 10:23:35;;;;;;;27.80;18.77;;;4.80;99.90;;;;;;4999486;28;20029;-52
2023/12/03 10:26:10;;;;;;;26.13;17.55;;;5.00;99.90;;;;;;4958737;28;20080;-56
2023/12/03 10:28:35;;;;;;;25.67;16.35;;;5.50;99.90;;;;;;4946371;29;20076;-51
2023/12/03 10:31:01;;;;;;;26.25;17.30;;;5.90;99.90;;;;;;4933273;29;20038;-55
2023/12/03 10:33:26;;;;;;;25.60;17.50;;;5.70;99.90;;;;;;4933436;29;20518;-48
2023/12/03 10:35:59;;;;;;;28.02;17.92;;;5.80;99.90;;;;;;4950622;28;20058;-51
2023/12/03 10:38:25;;;;;;;26.52;17.27;;;5.70;99.90;;;;;;4952456;28;20027;-54
2023/12/03 10:40:51;;;;;;;25.40;17.55;;;5.60;99.90;;;;;;4943361;28;20051;-56
2023/12/03 10:43:17;;;;;;;28.27;17.63;;;5.20;99.90;;;;;;4933033;29;20038;-52
2023/12/03 10:45:42;;;;;;;28.80;17.65;;;4.80;99.90;;;;;;4947916;28;20033;-52
2023/12/03 10:48:10;;;;;;;29.05;17.77;;;4.60;99.90;;;;;;4966741;28;20499;-55
2023/12/03 10:50:38;;;;;;;28.33;17.60;;;4.10;99.90;;;;;;4955521;28;20110;-53
2023/12/03 10:53:05;;;;;;;29.88;18.33;;;3.70;99.90;;;;;;4933075;29;20029;-50
2023/12/03 10:55:31;;;;;;;33.55;19.17;;;3.60;99.90;;;;;;4950152;29;20035;-51
2023/12/03 10:58:01;;;;;;;33.58;19.20;;;3.40;99.90;;;;;;4946275;28;20034;-49
2023/12/03 11:00:35;;;;;;;31.63;18.45;;;3.30;99.90;;;;;;4954165;28;20085;-50
2023/12/03 11:03:29;;;;;;;30.60;17.35;;;3.30;99.90;;;;;;4954834;28;20035;-53
2023/12/03 11:05:59;;;;;;;27.95;17.45;;;3.10;99.90;;;;;;4970127;28;20022;-54
2023/12/03 11:08:25;;;;;;;30.13;19.17;;;3.00;99.90;;;;;;4972317;28;20023;-53
2023/12/03 11:10:52;;;;;;;31.15;18.55;;;2.70;99.90;;;;;;4965381;28;20027;-51
2023/12/03 11:13:18;;;;;;;28.92;17.38;;;2.60;99.90;;;;;;5036810;28;20032;-53
2023/12/03 11:15:45;;;;;;;34.28;19.02;;;2.60;99.90;;;;;;5003951;28;20076;-51
2023/12/03 11:18:12;;;;;;;34.03;18.40;;;2.50;99.90;;;;;;4971423;28;20045;-55
2023/12/03 11:20:39;;;;;;;34.90;19.40;;;2.20;99.90;;;;;;5006328;28;20116;-54
2023/12/03 11:23:39;;;;;;;29.17;17.08;;;2.20;99.90;;;;;;4959697;28;20498;-54
2023/12/03 11:26:13;;;;;;;29.55;17.02;;;2.00;99.90;;;;;;5015144;28;20497;-51
2023/12/03 11:28:52;;;;;;;41.10;23.73;;;2.10;99.90;;;;;;4972312;28;20143;-51
2023/12/03 11:31:17;;;;;;;101.95;49.45;;;2.10;99.90;;;;;;4939585;29;20027;-53
2023/12/03 11:33:59;;;;;;;37.70;20.23;;;2.00;99.90;;;;;;4952884;29;20046;-49
2023/12/03 11:36:52;;;;;;;31.08;18.05;;;2.00;99.90;;;;;;4965539;28;20110;-48
2023/12/03 11:39:19;;;;;;;32.80;19.02;;;2.00;99.90;;;;;;4968256;28;20393;-54
2023/12/03 11:41:45;;;;;;;31.70;18.30;;;2.10;99.90;;;;;;4995273;28;20104;-53
2023/12/03 11:44:21;;;;;;;28.92;17.70;;;2.10;99.90;;;;;;4936040;29;20111;-53
2023/12/03 11:47:00;;;;;;;32.85;18.80;;;2.00;99.90;;;;;;4944081;28;20037;-51
2023/12/03 11:49:27;;;;;;;30.13;17.15;;;2.10;99.90;;;;;;4954007;28;20088;-50
2023/12/03 11:51:53;;;;;;;37.80;19.52;;;2.10;99.90;;;;;;4968067;28;20061;-50
2023/12/03 11:54:25;;;;;;;33.10;18.80;;;2.00;99.90;;;;;;4946934;28;20033;-52
2023/12/03 11:56:52;;;;;;;32.75;17.77;;;2.00;99.90;;;;;;4969249;28;20027;-51
2023/12/03 11:59:18;;;;;;;31.73;16.23;;;1.90;99.90;;;;;;4947250;28;20076;-51
2023/12/03 12:01:44;;;;;;;30.05;16.88;;;2.00;99.90;;;;;;4956040;28;20027;-51
2023/12/03 12:04:19;;;;;;;31.02;17.17;;;2.00;99.90;;;;;;4973868;28;20439;-50
2023/12/03 12:06:45;;;;;;;;;;;1.90;99.90;;;;;;4956505;28;20395;-55
2023/12/03 12:09:13;;;;;;;28.45;16.35;;;1.90;99.90;;;;;;4948353;28;19929;-52
2023/12/03 12:11:39;;;;;;;30.00;16.80;;;1.80;99.90;;;;;;4954037;28;20035;-50
2023/12/03 12:14:05;;;;;;;30.20;16.48;;;1.80;99.90;;;;;;4968172;28;20075;-51
2023/12/03 12:16:32;;;;;;;29.45;16.23;;;1.80;99.90;;;;;;4952863;28;20077;-52
2023/12/03 12:18:58;;;;;;;27.65;16.45;;;1.80;99.90;;;;;;4967401;23;20417;-48
2023/12/03 12:21:24;;;;;;;34.05;17.80;;;1.70;99.90;;;;;;4968038;28;20027;-50
2023/12/03 12:23:49;;;;;;;26.92;15.50;;;1.70;99.90;;;;;;4975339;28;20110;-53
2023/12/03 12:26:15;;;;;;;28.20;16.67;;;1.60;99.90;;;;;;4957343;28;20076;-50